Time;durP1;ratioP1;P1;durP2;ratioP2;P2;SDS_P1;SDS_P2;PMS_P1;PMS_P2;Temp;Humidity;BMP_temperature;BMP_pressure;BME280_temperature;BME280_humidity;BME280_pressure;Samples;Min_cycle;Max_cycle;Signal;HPM_P1;HPM_P2
2022/06/11 00:01:24;;;;;;;0.00;0.00;;;17.90;99.90;;;;;;4947401;28;20162;-75
2022/06/11 00:03:53;;;;;;;0.00;0.00;;;17.90;99.90;;;;;;4924651;29;20047;-79
2022/06/11 00:06:20;;;;;;;0.00;0.00;;;17.80;99.90;;;;;;4946027;29;20036;-74
2022/06/11 00:08:47;;;;;;;;;;;17.80;99.90;;;;;;4947634;28;20103;-73
2022/06/11 00:11:13;;;;;;;0.00;0.00;;;17.80;99.90;;;;;;4928368;29;19950;-74
2022/06/11 00:13:41;;;;;;;0.00;0.00;;;17.80;99.90;;;;;;4941888;28;20307;-73
2022/06/11 00:16:08;;;;;;;0.00;0.00;;;17.80;99.90;;;;;;4927177;29;20127;-75
2022/06/11 00:18:35;;;;;;;0.00;0.00;;;17.80;99.90;;;;;;4946326;28;20311;-77
2022/06/11 00:21:01;;;;;;;0.00;0.00;;;17.80;99.90;;;;;;4936102;29;20040;-78
2022/06/11 00:23:26;;;;;;;0.00;0.00;;;17.80;99.90;;;;;;4946020;29;20041;-72
2022/06/11 00:25:53;;;;;;;0.00;0.00;;;17.80;99.90;;;;;;4928159;29;20309;-74
2022/06/11 00:28:19;;;;;;;0.00;0.00;;;17.80;99.90;;;;;;4930391;29;20028;-74
2022/06/11 00:30:45;;;;;;;0.00;0.00;;;17.70;99.90;;;;;;4943117;28;20019;-72
2022/06/11 00:33:11;;;;;;;0.00;0.00;;;17.80;99.90;;;;;;4947576;28;20023;-78
2022/06/11 00:35:38;;;;;;;0.00;0.00;;;17.80;99.90;;;;;;4939465;29;20098;-72
2022/06/11 00:38:05;;;;;;;0.00;0.00;;;17.80;99.90;;;;;;4951255;28;20053;-73
2022/06/11 00:40:32;;;;;;;0.00;0.00;;;17.80;99.90;;;;;;4947842;28;20031;-79
2022/06/11 00:42:57;;;;;;;0.00;0.00;;;17.80;99.90;;;;;;4950205;28;20037;-77
2022/06/11 00:45:31;;;;;;;0.00;0.00;;;17.80;99.90;;;;;;4941031;28;20055;-74
2022/06/11 00:48:14;;;;;;;0.00;0.00;;;17.80;99.90;;;;;;4945484;28;20050;-75
2022/06/11 00:50:45;;;;;;;0.00;0.00;;;17.80;99.90;;;;;;4949547;28;20119;-73
2022/06/11 00:53:39;;;;;;;0.00;0.00;;;17.80;99.90;;;;;;4921552;29;20060;-76
2022/06/11 00:56:11;;;;;;;0.00;0.00;;;17.70;99.90;;;;;;4929396;28;20318;-73
2022/06/11 00:58:41;;;;;;;0.00;0.00;;;17.70;99.90;;;;;;4939627;29;20038;-73
2022/06/11 01:01:07;;;;;;;0.00;0.00;;;17.70;99.90;;;;;;4948439;28;20303;-73
2022/06/11 01:03:36;;;;;;;0.00;0.00;;;17.70;99.90;;;;;;4936950;29;20067;-73
2022/06/11 01:06:17;;;;;;;0.00;0.00;;;17.70;99.90;;;;;;4946983;28;20035;-75
2022/06/11 01:09:09;;;;;;;0.00;0.00;;;17.70;99.90;;;;;;4947553;28;20031;-72
2022/06/11 01:11:47;;;;;;;0.00;0.00;;;17.70;99.90;;;;;;4926766;28;20059;-72
2022/06/11 01:14:19;;;;;;;0.00;0.00;;;17.70;99.90;;;;;;4949624;28;20019;-73
2022/06/11 01:16:47;;;;;;;0.00;0.00;;;17.70;99.90;;;;;;4930101;28;20090;-75
2022/06/11 01:19:59;;;;;;;0.00;0.00;;;17.70;99.90;;;;;;4930531;29;20307;-73
2022/06/11 01:22:43;;;;;;;0.00;0.00;;;17.60;99.90;;;;;;4944508;28;20024;-73
2022/06/11 01:25:52;;;;;;;0.00;0.00;;;17.60;99.90;;;;;;4947199;28;20082;-75
2022/06/11 01:28:53;;;;;;;0.00;0.00;;;17.60;99.90;;;;;;4937267;29;20047;-78
2022/06/11 01:31:26;;;;;;;0.00;0.00;;;17.60;99.90;;;;;;4923423;28;20444;-73
2022/06/11 01:33:57;;;;;;;0.00;0.00;;;17.60;99.90;;;;;;4938860;28;20035;-75
2022/06/11 01:36:27;;;;;;;0.00;0.00;;;17.60;99.90;;;;;;4943338;28;20023;-73
2022/06/11 01:38:57;;;;;;;0.00;0.00;;;17.60;99.90;;;;;;4922868;28;20747;-73
2022/06/11 01:41:38;;;;;;;0.00;0.00;;;17.60;99.90;;;;;;4941588;29;20066;-73
2022/06/11 01:44:13;;;;;;;0.00;0.00;;;17.50;99.90;;;;;;4942615;28;20063;-73
2022/06/11 01:46:43;;;;;;;0.00;0.00;;;17.50;99.90;;;;;;4924397;29;20091;-71
2022/06/11 01:49:20;;;;;;;0.00;0.00;;;17.50;99.90;;;;;;4946268;28;20042;-73
2022/06/11 01:51:59;;;;;;;0.00;0.00;;;17.50;99.90;;;;;;4925065;29;20346;-73
2022/06/11 01:54:30;;;;;;;0.00;0.00;;;17.50;99.90;;;;;;4936102;29;20039;-74
2022/06/11 01:57:29;;;;;;;0.00;0.00;;;17.50;99.90;;;;;;4943690;29;20077;-72
2022/06/11 02:00:13;;;;;;;0.00;0.00;;;17.50;99.90;;;;;;4925574;29;20294;-73
2022/06/11 02:02:47;;;;;;;0.00;0.00;;;17.50;99.90;;;;;;4940786;29;20031;-73
2022/06/11 02:05:19;;;;;;;0.00;0.00;;;17.50;99.90;;;;;;4950088;28;20070;-76
2022/06/11 02:07:56;;;;;;;0.00;0.00;;;17.40;99.90;;;;;;4942500;28;20086;-73
2022/06/11 02:10:26;;;;;;;0.00;0.00;;;17.40;99.90;;;;;;4947820;28;20023;-76
2022/06/11 02:13:04;;;;;;;0.00;0.00;;;17.40;99.90;;;;;;4928307;29;20062;-74
2022/06/11 02:15:41;;;;;;;0.00;0.00;;;17.40;99.90;;;;;;4953422;29;20483;-75
2022/06/11 02:18:13;;;;;;;0.00;0.00;;;17.40;99.90;;;;;;4939763;29;20038;-74
2022/06/11 02:20:54;;;;;;;0.00;0.00;;;17.40;99.90;;;;;;4948350;29;20046;-74
2022/06/11 02:23:26;;;;;;;0.00;0.00;;;17.40;99.90;;;;;;4947197;28;20250;-76
2022/06/11 02:25:57;;;;;;;0.00;0.00;;;17.40;99.90;;;;;;4928275;29;20024;-73
2022/06/11 02:28:28;;;;;;;0.00;0.00;;;17.40;99.90;;;;;;4946017;29;20094;-73
2022/06/11 02:30:57;;;;;;;0.00;0.00;;;17.30;99.90;;;;;;4941159;29;20109;-73
2022/06/11 02:33:23;;;;;;;0.00;0.00;;;17.30;99.90;;;;;;4929596;29;20030;-76
2022/06/11 02:35:49;;;;;;;0.00;0.00;;;17.30;99.90;;;;;;4929704;29;20067;-73
2022/06/11 02:38:18;;;;;;;0.00;0.00;;;17.30;99.90;;;;;;4949450;29;20024;-74
2022/06/11 02:40:49;;;;;;;0.00;0.00;;;17.30;99.90;;;;;;4928911;29;20035;-73
2022/06/11 02:43:15;;;;;;;0.00;0.00;;;17.30;99.90;;;;;;4940166;29;20030;-76
2022/06/11 02:45:40;;;;;;;0.00;0.00;;;17.30;99.90;;;;;;4929546;29;20024;-79
2022/06/11 02:48:06;;;;;;;0.00;0.00;;;17.30;99.90;;;;;;4943419;28;20019;-74
2022/06/11 02:50:34;;;;;;;0.00;0.00;;;17.30;99.90;;;;;;4929341;29;20039;-73
2022/06/11 02:53:01;;;;;;;0.00;0.00;;;17.20;99.90;;;;;;4945845;28;20218;-73
2022/06/11 02:55:30;;;;;;;0.00;0.00;;;17.20;99.90;;;;;;4948822;28;20274;-75
2022/06/11 02:57:56;;;;;;;0.00;0.00;;;17.20;99.90;;;;;;4933596;28;20330;-72
2022/06/11 03:00:26;;;;;;;0.00;0.00;;;17.20;99.90;;;;;;4932785;29;20030;-72
2022/06/11 03:02:52;;;;;;;0.00;0.00;;;17.20;99.90;;;;;;4951409;28;20019;-72
2022/06/11 03:05:22;;;;;;;0.00;0.00;;;17.20;99.90;;;;;;4939128;29;20051;-74
2022/06/11 03:07:49;;;;;;;0.00;0.00;;;17.20;99.90;;;;;;4946805;29;20035;-75
2022/06/11 03:10:20;;;;;;;0.00;0.00;;;17.20;99.90;;;;;;4949684;28;20087;-72
2022/06/11 03:12:45;;;;;;;0.00;0.00;;;17.20;99.90;;;;;;4949684;28;20082;-76
2022/06/11 03:15:13;;;;;;;0.00;0.00;;;17.20;99.90;;;;;;4950893;28;20063;-73
2022/06/11 03:17:40;;;;;;;0.00;0.00;;;17.20;99.90;;;;;;4949985;29;20082;-72
2022/06/11 03:20:08;;;;;;;0.00;0.00;;;17.20;99.90;;;;;;4947988;28;20095;-72
2022/06/11 03:22:34;;;;;;;0.00;0.00;;;17.10;99.90;;;;;;4949976;28;20059;-73
2022/06/11 03:25:00;;;;;;;0.00;0.00;;;17.10;99.90;;;;;;4949384;28;20035;-73
2022/06/11 03:27:26;;;;;;;0.00;0.00;;;17.10;99.90;;;;;;4930703;29;20315;-73
2022/06/11 03:29:52;;;;;;;0.00;0.00;;;17.10;99.90;;;;;;4948299;28;20058;-74
2022/06/11 03:32:19;;;;;;;0.00;0.00;;;17.20;99.90;;;;;;4939434;29;20378;-73
2022/06/11 03:34:45;;;;;;;0.00;0.00;;;17.10;99.90;;;;;;4947866;28;20061;-72
2022/06/11 03:37:11;;;;;;;0.00;0.00;;;17.20;99.90;;;;;;4943902;28;20374;-76
2022/06/11 03:39:37;;;;;;;0.00;0.00;;;17.20;99.90;;;;;;4950367;28;20063;-72
2022/06/11 03:42:03;;;;;;;0.00;0.00;;;17.20;99.90;;;;;;4944491;29;20192;-78
2022/06/11 03:44:29;;;;;;;0.00;0.00;;;17.20;99.90;;;;;;4942380;28;20035;-74
2022/06/11 03:46:56;;;;;;;0.00;0.00;;;17.20;99.90;;;;;;4930107;29;20303;-74
2022/06/11 03:49:22;;;;;;;0.00;0.00;;;17.20;99.90;;;;;;4925785;29;20058;-75
2022/06/11 03:51:47;;;;;;;0.00;0.00;;;17.20;99.90;;;;;;4928528;29;20262;-74
2022/06/11 03:54:14;;;;;;;0.00;0.00;;;17.20;99.90;;;;;;4942662;28;20204;-74
2022/06/11 03:56:40;;;;;;;0.00;0.00;;;17.20;99.90;;;;;;4947165;28;20579;-77
2022/06/11 03:59:07;;;;;;;0.00;0.00;;;17.20;99.90;;;;;;4945110;28;20028;-74
2022/06/11 04:01:33;;;;;;;0.00;0.00;;;17.20;99.90;;;;;;4944422;28;20073;-73
2022/06/11 04:04:02;;;;;;;0.00;0.00;;;17.20;99.90;;;;;;4929578;29;20132;-74
2022/06/11 04:06:43;;;;;;;0.00;0.00;;;17.20;99.90;;;;;;4943926;28;20024;-73
2022/06/11 04:09:19;;;;;;;0.00;0.00;;;17.20;99.90;;;;;;4949244;28;20175;-74
2022/06/11 04:11:46;;;;;;;0.00;0.00;;;17.20;99.90;;;;;;4948054;28;20062;-74
2022/06/11 04:14:12;;;;;;;0.00;0.00;;;17.30;99.90;;;;;;4943831;28;20019;-74
2022/06/11 04:16:48;;;;;;;0.00;0.00;;;17.30;99.90;;;;;;4945005;28;20023;-72
2022/06/11 04:19:26;;;;;;;0.00;0.00;;;17.30;99.90;;;;;;4949050;28;20033;-72
2022/06/11 04:21:53;;;;;;;0.00;0.00;;;17.30;99.90;;;;;;4930894;28;20035;-72
2022/06/11 04:24:20;;;;;;;0.00;0.00;;;17.40;99.90;;;;;;4940928;28;20027;-73
2022/06/11 04:26:49;;;;;;;0.00;0.00;;;17.40;99.90;;;;;;4944275;28;20303;-73
2022/06/11 04:29:18;;;;;;;0.00;0.00;;;17.40;99.90;;;;;;4945505;28;20057;-77
2022/06/11 04:31:46;;;;;;;0.00;0.00;;;17.40;99.90;;;;;;4929820;29;20034;-73
2022/06/11 04:34:14;;;;;;;0.00;0.00;;;17.50;99.90;;;;;;4949754;28;20023;-73
2022/06/11 04:36:43;;;;;;;0.00;0.00;;;17.50;99.90;;;;;;4943345;28;20054;-79
2022/06/11 04:39:09;;;;;;;0.00;0.00;;;17.50;99.90;;;;;;4943518;28;20031;-74
2022/06/11 04:41:35;;;;;;;0.00;0.00;;;17.50;99.90;;;;;;4928875;29;20043;-74
2022/06/11 04:44:02;;;;;;;0.00;0.00;;;17.60;99.90;;;;;;4929015;29;20311;-73
2022/06/11 04:46:28;;;;;;;0.00;0.00;;;17.60;99.90;;;;;;4926965;29;20102;-77
2022/06/11 04:48:54;;;;;;;0.00;0.00;;;17.60;99.90;;;;;;4925799;29;20054;-74
2022/06/11 04:51:20;;;;;;;0.00;0.00;;;17.60;99.90;;;;;;4938682;28;20600;-74
2022/06/11 04:53:47;;;;;;;0.00;0.00;;;17.70;99.90;;;;;;4927734;29;20027;-75
2022/06/11 04:56:17;;;;;;;0.00;0.00;;;17.70;99.90;;;;;;4930935;29;20031;-72
2022/06/11 04:58:44;;;;;;;0.00;0.00;;;17.70;99.90;;;;;;4943823;28;20307;-73
2022/06/11 05:01:10;;;;;;;0.00;0.00;;;17.80;99.90;;;;;;4936923;28;20614;-74
2022/06/11 05:03:36;;;;;;;0.00;0.00;;;17.80;99.90;;;;;;4943945;28;20235;-73
2022/06/11 05:06:02;;;;;;;0.00;0.00;;;17.80;99.90;;;;;;4925876;29;20054;-73
2022/06/11 05:08:28;;;;;;;0.00;0.00;;;17.90;99.90;;;;;;4927247;29;20059;-73
2022/06/11 05:10:54;;;;;;;0.00;0.00;;;17.90;99.90;;;;;;4947620;28;20035;-73
2022/06/11 05:13:19;;;;;;;0.00;0.00;;;17.90;99.90;;;;;;4942246;28;20023;-74
2022/06/11 05:15:49;;;;;;;0.00;0.00;;;18.00;99.90;;;;;;4944852;28;20169;-73
2022/06/11 05:18:15;;;;;;;0.00;0.00;;;18.00;99.90;;;;;;4944182;28;20090;-72
2022/06/11 05:20:41;;;;;;;0.00;0.00;;;18.10;99.90;;;;;;4946475;28;20027;-77
2022/06/11 05:23:07;;;;;;;0.00;0.00;;;18.10;99.90;;;;;;4948066;28;20087;-77
2022/06/11 05:25:35;;;;;;;0.00;0.00;;;18.10;99.90;;;;;;4944644;28;20023;-73
2022/06/11 05:28:02;;;;;;;0.00;0.00;;;18.10;99.90;;;;;;4946461;28;20336;-78
2022/06/11 05:30:31;;;;;;;0.00;0.00;;;18.20;99.90;;;;;;4948313;28;20031;-73
2022/06/11 05:32:57;;;;;;;0.00;0.00;;;18.20;99.90;;;;;;4935267;29;20318;-74
2022/06/11 05:35:26;;;;;;;0.00;0.00;;;18.30;99.90;;;;;;4933487;28;20031;-73
2022/06/11 05:37:53;;;;;;;0.00;0.00;;;18.30;99.90;;;;;;4935760;29;20035;-73
2022/06/11 05:40:24;;;;;;;0.00;0.00;;;18.40;99.90;;;;;;4921502;28;20055;-72
2022/06/11 05:42:50;;;;;;;0.00;0.00;;;18.40;99.90;;;;;;4943025;28;20039;-76
2022/06/11 05:45:18;;;;;;;0.00;0.00;;;18.40;99.90;;;;;;4923318;29;20020;-72
2022/06/11 05:47:46;;;;;;;0.00;0.00;;;18.50;99.90;;;;;;4945233;28;20198;-75
2022/06/11 05:50:18;;;;;;;0.00;0.00;;;18.50;99.90;;;;;;4937502;29;20023;-73
2022/06/11 05:52:45;;;;;;;0.00;0.00;;;18.50;99.90;;;;;;4948158;28;20042;-73
2022/06/11 05:55:17;;;;;;;0.00;0.00;;;18.60;99.90;;;;;;4930767;29;20061;-79
2022/06/11 05:57:45;;;;;;;0.00;0.00;;;18.60;99.90;;;;;;4945403;28;20276;-73
2022/06/11 06:00:15;;;;;;;0.00;0.00;;;18.60;99.90;;;;;;4943667;28;20414;-79
2022/06/11 06:02:43;;;;;;;0.00;0.00;;;18.70;99.90;;;;;;4941866;28;20080;-74
2022/06/11 06:05:09;;;;;;;0.00;0.00;;;18.80;99.90;;;;;;4927270;29;20072;-79
2022/06/11 06:07:35;;;;;;;0.00;0.00;;;18.90;99.90;;;;;;4936290;29;20027;-74
2022/06/11 06:10:00;;;;;;;0.00;0.00;;;19.10;99.90;;;;;;4943633;28;20038;-78
2022/06/11 06:12:32;;;;;;;0.00;0.00;;;19.40;99.90;;;;;;4943939;28;20035;-74
2022/06/11 06:15:06;;;;;;;0.00;0.00;;;19.80;99.90;;;;;;4943914;28;20053;-75
2022/06/11 06:17:31;;;;;;;0.00;0.00;;;20.50;99.90;;;;;;4940816;28;20290;-73
2022/06/11 06:19:57;;;;;;;0.00;0.00;;;21.20;99.90;;;;;;4949578;28;20094;-72
2022/06/11 06:22:23;;;;;;;0.00;0.00;;;21.90;99.90;;;;;;4929595;29;20786;-73
2022/06/11 06:24:48;;;;;;;0.00;0.00;;;22.70;99.90;;;;;;4925304;29;20019;-76
2022/06/11 06:27:14;;;;;;;0.00;0.00;;;23.40;98.80;;;;;;4923314;29;20027;-73
2022/06/11 06:29:40;;;;;;;0.00;0.00;;;24.00;97.30;;;;;;4929639;29;20527;-79
2022/06/11 06:32:06;;;;;;;0.00;0.00;;;24.50;95.40;;;;;;4940411;28;20028;-73
2022/06/11 06:34:31;;;;;;;0.00;0.00;;;25.00;95.00;;;;;;4946395;28;20527;-73
2022/06/11 06:36:57;;;;;;;0.00;0.00;;;25.40;93.70;;;;;;4935626;28;20032;-74
2022/06/11 06:39:22;;;;;;;0.00;0.00;;;26.00;93.10;;;;;;4943284;28;20235;-74
2022/06/11 06:41:49;;;;;;;0.00;0.00;;;26.40;92.60;;;;;;4936413;29;20311;-74
2022/06/11 06:44:16;;;;;;;0.00;0.00;;;26.70;88.10;;;;;;4934678;28;20095;-74
2022/06/11 06:46:42;;;;;;;0.00;0.00;;;26.90;88.60;;;;;;4930897;29;20049;-73
2022/06/11 06:49:08;;;;;;;0.00;0.00;;;27.20;88.90;;;;;;4948100;29;20028;-74
2022/06/11 06:51:34;;;;;;;0.00;0.00;;;27.50;87.40;;;;;;4933212;29;20039;-77
2022/06/11 06:54:01;;;;;;;0.00;0.00;;;27.90;86.80;;;;;;4939046;29;20023;-79
2022/06/11 06:56:31;;;;;;;0.00;0.00;;;28.00;82.90;;;;;;4950735;28;20040;-74
2022/06/11 06:58:57;;;;;;;0.00;0.00;;;28.30;82.80;;;;;;4946806;28;20050;-72
2022/06/11 07:01:26;;;;;;;0.00;0.00;;;28.60;79.30;;;;;;4912364;29;20038;-76
2022/06/11 07:03:52;;;;;;;0.00;0.00;;;28.90;78.90;;;;;;4933273;29;20188;-76
2022/06/11 07:06:18;;;;;;;0.00;0.00;;;29.30;76.80;;;;;;4950648;28;20030;-74
2022/06/11 07:08:44;;;;;;;0.00;0.00;;;29.50;78.20;;;;;;4949478;28;20031;-73
2022/06/11 07:11:09;;;;;;;0.00;0.00;;;29.80;75.30;;;;;;4939980;29;20035;-76
2022/06/11 07:13:35;;;;;;;0.00;0.00;;;30.20;73.90;;;;;;4931744;29;20027;-76
2022/06/11 07:16:02;;;;;;;0.00;0.00;;;30.40;74.10;;;;;;4932853;28;20099;-75
2022/06/11 07:18:50;;;;;;;0.00;0.00;;;30.30;73.70;;;;;;4934240;29;20035;-72
2022/06/11 07:21:25;;;;;;;0.00;0.00;;;29.70;71.20;;;;;;4948591;28;20059;-71
2022/06/11 07:23:55;;;;;;;0.00;0.00;;;29.50;72.80;;;;;;4931284;28;20038;-78
2022/06/11 07:26:26;;;;;;;0.00;0.00;;;28.90;71.30;;;;;;4948904;28;20023;-84
2022/06/11 07:29:01;;;;;;;0.00;0.00;;;28.20;73.50;;;;;;4952379;28;20074;-77
2022/06/11 07:31:31;;;;;;;0.00;0.00;;;27.60;74.50;;;;;;4934888;29;20028;-80
2022/06/11 07:33:57;;;;;;;0.00;0.00;;;27.00;76.10;;;;;;4948970;28;20412;-72
2022/06/11 07:36:23;;;;;;;0.00;0.00;;;26.50;76.60;;;;;;4948185;28;20066;-72
2022/06/11 07:38:49;;;;;;;0.00;0.00;;;26.10;78.20;;;;;;4948376;28;20264;-72
2022/06/11 07:41:14;;;;;;;0.00;0.00;;;25.70;79.10;;;;;;4949322;28;20035;-72
2022/06/11 07:43:40;;;;;;;0.00;0.00;;;25.40;80.10;;;;;;4945402;28;20027;-80
2022/06/11 07:46:06;;;;;;;0.00;0.00;;;25.20;80.00;;;;;;4939688;28;20326;-72
2022/06/11 07:48:33;;;;;;;0.00;0.00;;;25.00;81.70;;;;;;4945971;28;20062;-71
2022/06/11 07:50:59;;;;;;;0.00;0.00;;;24.90;81.90;;;;;;4949805;28;20054;-71
2022/06/11 07:53:25;;;;;;;0.00;0.00;;;24.80;82.30;;;;;;4951799;28;20027;-75
2022/06/11 07:55:53;;;;;;;0.00;0.00;;;24.80;82.20;;;;;;4945176;28;20031;-79
2022/06/11 07:58:19;;;;;;;;;;;24.90;82.90;;;;;;4928273;28;20035;-71
2022/06/11 08:00:48;;;;;;;0.00;0.00;;;25.20;81.80;;;;;;4930057;29;19929;-71
2022/06/11 08:03:14;;;;;;;0.00;0.00;;;25.60;81.40;;;;;;4929229;29;20023;-70
2022/06/11 08:05:41;;;;;;;0.00;0.00;;;26.30;80.90;;;;;;4937443;29;20583;-79
2022/06/11 08:08:08;;;;;;;0.00;0.00;;;27.40;78.80;;;;;;4947860;28;20067;-76
2022/06/11 08:10:36;;;;;;;0.00;0.00;;;28.50;79.00;;;;;;4946168;28;20065;-76
2022/06/11 08:13:02;;;;;;;0.00;0.00;;;29.60;71.70;;;;;;4949797;29;20087;-72
2022/06/11 08:15:29;;;;;;;0.00;0.00;;;30.50;69.30;;;;;;4930824;29;20215;-76
2022/06/11 08:17:54;;;;;;;0.00;0.00;;;31.50;69.50;;;;;;4946255;29;20032;-71
2022/06/11 08:20:24;;;;;;;0.00;0.00;;;32.30;66.70;;;;;;4930430;29;20124;-80
2022/06/11 08:22:50;;;;;;;0.00;0.00;;;33.10;65.30;;;;;;4948003;29;20102;-82
2022/06/11 08:25:17;;;;;;;0.00;0.00;;;33.80;63.40;;;;;;4950382;28;20231;-72
2022/06/11 08:27:44;;;;;;;0.00;0.00;;;34.30;61.60;;;;;;4950868;28;20027;-75
2022/06/11 08:30:13;;;;;;;0.00;0.00;;;34.80;59.50;;;;;;4950340;28;20114;-73
2022/06/11 08:32:38;;;;;;;0.00;0.00;;;35.40;57.90;;;;;;4944561;28;20322;-73
2022/06/11 08:35:05;;;;;;;0.00;0.00;;;35.70;55.70;;;;;;4951119;28;20027;-72
2022/06/11 08:37:30;;;;;;;0.00;0.00;;;36.00;56.50;;;;;;4949278;28;20027;-80
2022/06/11 08:39:56;;;;;;;0.00;0.00;;;36.10;52.50;;;;;;4946029;28;20546;-74
2022/06/11 08:42:36;;;;;;;0.00;0.00;;;36.30;53.10;;;;;;4948962;28;20032;-72
2022/06/11 08:45:14;;;;;;;0.00;0.00;;;36.80;53.00;;;;;;4931131;29;20275;-72
2022/06/11 08:47:45;;;;;;;0.00;0.00;;;37.40;53.40;;;;;;4950342;28;20107;-81
2022/06/11 08:50:15;;;;;;;0.00;0.00;;;37.20;52.10;;;;;;4930684;29;20600;-79
2022/06/11 08:52:42;;;;;;;0.00;0.00;;;37.30;51.50;;;;;;4945614;29;20023;-80
2022/06/11 08:55:08;;;;;;;0.00;0.00;;;37.30;51.50;;;;;;4948941;28;20027;-72
2022/06/11 08:57:51;;;;;;;0.00;0.00;;;37.70;51.10;;;;;;4930330;29;20029;-72
2022/06/11 09:00:34;;;;;;;0.00;0.00;;;38.10;50.80;;;;;;4937893;29;20044;-73
2022/06/11 09:03:09;;;;;;;0.00;0.00;;;38.40;49.00;;;;;;4947003;28;20030;-80
2022/06/11 09:05:48;;;;;;;0.00;0.00;;;38.50;49.40;;;;;;4947346;28;20067;-72
2022/06/11 09:08:29;;;;;;;0.00;0.00;;;38.90;48.90;;;;;;4948620;28;20517;-79
2022/06/11 09:11:19;;;;;;;0.00;0.00;;;39.40;48.30;;;;;;4938346;29;20023;-72
2022/06/11 09:14:21;;;;;;;0.00;0.00;;;38.50;46.90;;;;;;4944018;28;20054;-72
2022/06/11 09:17:01;;;;;;;0.00;0.00;;;38.60;48.20;;;;;;4931498;28;20346;-71
2022/06/11 09:19:47;;;;;;;0.00;0.00;;;38.50;48.20;;;;;;4947666;28;20103;-72
2022/06/11 09:22:38;;;;;;;0.00;0.00;;;38.70;48.30;;;;;;4944452;28;20036;-72
2022/06/11 09:25:35;;;;;;;0.00;0.00;;;38.90;46.10;;;;;;4930160;28;20023;-78
2022/06/11 09:28:40;;;;;;;0.00;0.00;;;39.00;46.80;;;;;;4927470;29;20136;-81
2022/06/11 09:31:12;;;;;;;0.00;0.00;;;37.40;47.50;;;;;;4935943;28;20086;-73
2022/06/11 09:34:04;;;;;;;0.00;0.00;;;37.10;49.80;;;;;;4945067;28;20035;-73
2022/06/11 09:36:43;;;;;;;0.00;0.00;;;36.20;49.20;;;;;;4937318;28;20130;-81
2022/06/11 09:39:37;;;;;;;0.00;0.00;;;35.90;49.70;;;;;;4926768;29;20369;-74
2022/06/11 09:42:15;;;;;;;0.00;0.00;;;36.20;46.40;;;;;;4942315;29;20254;-72
2022/06/11 09:44:57;;;;;;;0.00;0.00;;;35.90;46.30;;;;;;4947571;28;20031;-80
2022/06/11 09:47:45;;;;;;;0.00;0.00;;;35.90;47.40;;;;;;4925449;29;20055;-72
2022/06/11 09:50:22;;;;;;;0.00;0.00;;;36.70;46.70;;;;;;4945934;29;20019;-81
2022/06/11 09:52:51;;;;;;;0.00;0.00;;;37.50;45.10;;;;;;4946030;29;20044;-74
2022/06/11 09:55:34;;;;;;;0.00;0.00;;;38.30;45.40;;;;;;4945037;29;20027;-83
2022/06/11 09:58:26;;;;;;;0.00;0.00;;;39.40;44.80;;;;;;4946016;29;20468;-81
2022/06/11 10:01:05;;;;;;;0.00;0.00;;;40.10;42.20;;;;;;4914381;29;20267;-74
2022/06/11 10:03:49;;;;;;;0.00;0.00;;;40.50;41.70;;;;;;4926884;29;20138;-77
2022/06/11 10:06:53;;;;;;;0.00;0.00;;;40.80;40.40;;;;;;4935845;29;20159;-73
2022/06/11 10:09:30;;;;;;;0.00;0.00;;;41.30;41.00;;;;;;4936785;29;20027;-74
2022/06/11 10:12:22;;;;;;;0.00;0.00;;;42.00;41.10;;;;;;4944434;29;20080;-72
2022/06/11 10:14:50;;;;;;;0.00;0.00;;;42.50;40.50;;;;;;4944792;29;20024;-73
2022/06/11 10:17:20;;;;;;;0.00;0.00;;;43.20;40.30;;;;;;4949492;29;20042;-79
2022/06/11 10:20:21;;;;;;;0.00;0.00;;;43.40;38.30;;;;;;4929940;28;20023;-73
2022/06/11 10:22:55;;;;;;;0.00;0.00;;;44.20;40.50;;;;;;4948616;29;20098;-73
2022/06/11 10:25:35;;;;;;;0.00;0.00;;;44.90;39.40;;;;;;4948906;29;20047;-80
2022/06/11 10:28:19;;;;;;;0.00;0.00;;;45.10;36.60;;;;;;4940973;28;20028;-73
2022/06/11 10:30:59;;;;;;;0.00;0.00;;;44.90;36.50;;;;;;4932947;29;20020;-78
2022/06/11 10:33:46;;;;;;;0.00;0.00;;;45.10;37.20;;;;;;4950997;29;20030;-72
2022/06/11 10:36:20;;;;;;;0.00;0.00;;;45.10;36.50;;;;;;4954326;29;20023;-75
2022/06/11 10:39:03;;;;;;;0.00;0.00;;;44.90;36.00;;;;;;4931826;29;20060;-76
2022/06/11 10:41:54;;;;;;;0.00;0.00;;;44.80;35.80;;;;;;4949752;29;20035;-74
2022/06/11 10:44:49;;;;;;;0.00;0.00;;;44.70;36.20;;;;;;4935641;29;20023;-83
2022/06/11 10:47:48;;;;;;;0.00;0.00;;;44.30;37.00;;;;;;4918615;29;20035;-77
2022/06/11 10:50:17;;;;;;;0.00;0.00;;;44.50;35.60;;;;;;4927060;29;20294;-72
2022/06/11 10:53:06;;;;;;;0.00;0.00;;;44.50;35.80;;;;;;4950730;29;20015;-73
2022/06/11 10:55:40;;;;;;;0.00;0.00;;;44.80;35.00;;;;;;4950570;29;20031;-74
2022/06/11 10:58:27;;;;;;;0.00;0.00;;;45.40;35.60;;;;;;4950405;28;20030;-73
2022/06/11 11:00:58;;;;;;;0.00;0.00;;;45.90;35.40;;;;;;4932391;29;20043;-72
2022/06/11 11:03:29;;;;;;;0.00;0.00;;;46.40;34.20;;;;;;4950401;29;20023;-73
2022/06/11 11:06:16;;;;;;;0.00;0.00;;;46.50;34.90;;;;;;4935337;29;20019;-73
2022/06/11 11:08:52;;;;;;;0.00;0.00;;;45.90;34.60;;;;;;4950235;28;20397;-74
2022/06/11 11:11:18;;;;;;;0.00;0.00;;;45.60;34.00;;;;;;4941040;29;20047;-74
2022/06/11 11:13:45;;;;;;;0.00;0.00;;;44.80;36.70;;;;;;4949243;29;20084;-74
2022/06/11 11:16:15;;;;;;;0.00;0.00;;;43.00;35.70;;;;;;4948865;29;20019;-89
2022/06/11 11:18:53;;;;;;;0.00;0.00;;;39.40;42.90;;;;;;4953019;29;20217;-88
2022/06/11 11:21:35;;;;;;;0.00;0.00;;;36.50;41.50;;;;;;4931864;29;20103;-91
2022/06/11 11:24:20;;;;;;;0.00;0.00;;;34.50;47.30;;;;;;4943065;28;20027;-87
2022/06/11 11:26:57;;;;;;;0.00;0.00;;;33.10;46.00;;;;;;4950439;29;20023;-85
2022/06/11 11:29:28;;;;;;;0.00;0.00;;;32.20;48.00;;;;;;4944848;29;20031;-79
2022/06/11 11:32:04;;;;;;;0.00;0.00;;;31.40;49.50;;;;;;4948382;28;20019;-77
2022/06/11 11:34:42;;;;;;;0.00;0.00;;;30.90;50.30;;;;;;4949829;29;20486;-86
2022/06/11 11:37:14;;;;;;;0.00;0.00;;;30.60;55.40;;;;;;4932478;29;20023;-77
2022/06/11 11:39:52;;;;;;;0.00;0.00;;;30.20;59.70;;;;;;4949095;29;20023;-81
2022/06/11 11:42:34;;;;;;;0.00;0.00;;;29.70;57.00;;;;;;4939167;29;20031;-75
2022/06/11 11:45:20;;;;;;;0.00;0.00;;;28.90;56.50;;;;;;4946923;28;20035;-80
2022/06/11 11:47:48;;;;;;;0.00;0.00;;;27.70;58.60;;;;;;4943555;29;20064;-77
2022/06/11 11:50:14;;;;;;;0.00;0.00;;;27.00;60.20;;;;;;4947403;29;20071;-76
2022/06/11 11:53:02;;;;;;;0.00;0.00;;;26.60;60.10;;;;;;4942596;29;20027;-79
2022/06/11 11:55:31;;;;;;;0.00;0.00;;;26.30;58.90;;;;;;4924322;29;20126;-77
2022/06/11 11:58:06;;;;;;;0.00;0.00;;;26.10;59.00;;;;;;4943497;29;20028;-75
2022/06/11 12:01:00;;;;;;;0.00;0.00;;;25.70;62.00;;;;;;4946283;29;21240;-76
2022/06/11 12:03:39;;;;;;;0.00;0.00;;;25.40;65.10;;;;;;4949468;29;20043;-77
2022/06/11 12:06:07;;;;;;;0.00;0.00;;;25.30;65.80;;;;;;4927434;29;20326;-79
2022/06/11 12:08:46;;;;;;;0.00;0.00;;;25.10;67.50;;;;;;4946182;28;20365;-79
2022/06/11 12:11:39;;;;;;;0.00;0.00;;;25.00;65.60;;;;;;4945022;29;20314;-77
2022/06/11 12:14:16;;;;;;;0.00;0.00;;;24.90;66.50;;;;;;4942764;28;20083;-76
2022/06/11 12:16:48;;;;;;;;;;;24.90;67.00;;;;;;4921946;29;20024;-77
2022/06/11 12:19:30;;;;;;;0.00;0.00;;;24.80;63.90;;;;;;4946429;28;19934;-78
2022/06/11 12:22:10;;;;;;;0.00;0.00;;;24.80;66.40;;;;;;4947081;28;20035;-78
2022/06/11 12:24:49;;;;;;;0.00;0.00;;;24.70;67.40;;;;;;4944450;28;20050;-79
2022/06/11 12:27:36;;;;;;;0.00;0.00;;;24.70;66.60;;;;;;4939207;28;20040;-80
2022/06/11 12:30:05;;;;;;;0.00;0.00;;;24.70;61.60;;;;;;4942009;28;20034;-79
2022/06/11 12:32:33;;;;;;;0.00;0.00;;;24.80;63.70;;;;;;4943211;28;20031;-78
2022/06/11 12:35:00;;;;;;;;;;;24.80;64.90;;;;;;4939038;28;20286;-78
2022/06/11 12:37:47;;;;;;;0.00;0.00;;;24.80;63.80;;;;;;4947290;28;20071;-79
2022/06/11 12:40:40;;;;;;;0.00;0.00;;;24.80;64.60;;;;;;4941125;28;20135;-79
2022/06/11 12:43:41;;;;;;;0.00;0.00;;;24.80;62.90;;;;;;4943762;28;20131;-78
2022/06/11 12:46:25;;;;;;;0.00;0.00;;;24.90;61.80;;;;;;4875542;29;20032;-79
2022/06/11 12:48:54;;;;;;;0.00;0.00;;;24.90;61.00;;;;;;4924448;29;20035;-78
2022/06/11 12:51:35;;;;;;;0.00;0.00;;;24.90;60.90;;;;;;4937045;28;20034;-79
2022/06/11 12:54:18;;;;;;;0.00;0.00;;;24.90;60.00;;;;;;4946792;28;20681;-79
2022/06/11 12:57:01;;;;;;;0.00;0.00;;;24.90;61.10;;;;;;4942279;29;20035;-78
2022/06/11 12:59:54;;;;;;;0.00;0.00;;;24.90;61.40;;;;;;4945485;28;20031;-78
2022/06/11 13:02:58;;;;;;;0.00;0.00;;;25.00;59.90;;;;;;4946148;29;20093;-79
2022/06/11 13:05:31;;;;;;;0.00;0.00;;;25.00;62.50;;;;;;4938098;29;20155;-78
2022/06/11 13:08:09;;;;;;;0.00;0.00;;;25.00;61.90;;;;;;4943672;28;20712;-77
2022/06/11 13:10:45;;;;;;;;;;;25.00;64.90;;;;;;4943364;28;20028;-77
2022/06/11 13:13:31;;;;;;;0.00;0.00;;;25.00;65.10;;;;;;4939081;28;20034;-79
2022/06/11 13:16:11;;;;;;;0.00;0.00;;;25.00;63.30;;;;;;4947368;28;20109;-79
2022/06/11 13:19:03;;;;;;;0.00;0.00;;;25.00;65.60;;;;;;4946999;28;20124;-79